createdAt,value
2023-05-18T00:01:06.547Z,0.95
2023-05-18T00:06:08.622Z,0.65
2023-05-18T00:11:10.366Z,0.28
2023-05-18T00:16:16.057Z,0.40
2023-05-18T00:21:18.049Z,1.23
2023-05-18T00:26:19.662Z,0.30
2023-05-18T00:31:21.332Z,0.25
2023-05-18T00:36:22.889Z,0.38
2023-05-18T00:41:25.352Z,0.68
2023-05-18T00:46:28.639Z,0.30
2023-05-18T00:51:32.599Z,1.45
2023-05-18T00:56:34.370Z,0.30
2023-05-18T01:01:36.976Z,1.88
2023-05-18T01:06:41.187Z,0.57
2023-05-18T01:12:11.865Z,0.40
2023-05-18T01:17:40.201Z,0.73
2023-05-18T01:22:50.800Z,1.10
2023-05-18T01:27:56.197Z,0.70
2023-05-18T01:32:57.804Z,0.43
2023-05-18T01:37:59.376Z,0.32
2023-05-18T01:43:10.731Z,0.60
2023-05-18T01:48:18.671Z,0.35
2023-05-18T01:53:51.421Z,0.68
2023-05-18T01:58:53.523Z,1.08
2023-05-18T02:03:55.207Z,0.40
2023-05-18T02:08:57.057Z,0.85
2023-05-18T02:13:58.799Z,0.40
2023-05-18T02:19:00.426Z,0.50
2023-05-18T02:24:02.012Z,0.57
2023-05-18T02:29:06.505Z,0.73
2023-05-18T02:34:09.180Z,1.23
2023-05-18T02:39:11.052Z,0.98
2023-05-18T02:44:13.085Z,0.85
2023-05-18T02:49:14.699Z,2.22
2023-05-18T02:54:16.292Z,0.80
2023-05-18T02:59:17.878Z,0.75
2023-05-18T03:04:20.033Z,0.90
2023-05-18T03:09:21.908Z,0.93
2023-05-18T03:14:23.501Z,0.65
2023-05-18T03:19:27.099Z,0.75
2023-05-18T03:24:30.389Z,0.40
2023-05-18T03:29:32.138Z,1.83
2023-05-18T03:34:33.812Z,0.80
2023-05-18T03:39:35.431Z,0.30
2023-05-18T03:44:37.308Z,1.08
2023-05-18T03:49:38.896Z,1.30
2023-05-18T03:54:42.786Z,0.73
2023-05-18T03:59:45.152Z,1.05
2023-05-18T04:04:47.359Z,1.35
2023-05-18T04:09:51.444Z,1.10
2023-05-18T04:14:54.352Z,1.30
2023-05-18T04:19:56.047Z,3.30
2023-05-18T04:24:57.971Z,1.42
2023-05-18T04:29:59.596Z,3.35
2023-05-18T04:35:01.904Z,1.40
2023-05-18T04:40:07.610Z,2.10
2023-05-18T04:45:12.848Z,1.42
2023-05-18T04:50:18.029Z,1.67
2023-05-18T04:55:29.224Z,3.25
2023-05-18T05:00:31.388Z,2.97
2023-05-18T05:05:34.075Z,3.42
2023-05-18T05:10:35.744Z,2.85
2023-05-18T05:15:37.433Z,2.42
2023-05-18T05:20:39.100Z,2.80
2023-05-18T05:25:40.710Z,2.67
2023-05-18T05:30:42.377Z,3.35
2023-05-18T05:35:44.397Z,2.80
2023-05-18T05:40:46.120Z,3.63
2023-05-18T05:45:47.728Z,3.13
2023-05-18T05:50:49.696Z,2.15
2023-05-18T05:55:51.389Z,2.17
2023-05-18T06:00:53.047Z,3.30
2023-05-18T06:05:56.400Z,2.88
2023-05-18T06:10:58.103Z,3.08
2023-05-18T06:15:59.700Z,2.42
2023-05-18T06:21:01.424Z,2.30
2023-05-18T06:26:03.206Z,2.10
2023-05-18T06:31:05.328Z,4.88
2023-05-18T06:36:07.097Z,4.47
2023-05-18T06:41:08.794Z,3.15
2023-05-18T06:46:18.565Z,2.75
2023-05-18T06:51:20.959Z,1.50
2023-05-18T06:56:22.878Z,2.78
2023-05-18T07:01:24.987Z,1.65
2023-05-18T07:06:26.627Z,3.53
2023-05-18T07:11:29.605Z,3.88
2023-05-18T07:16:31.768Z,2.20
2023-05-18T07:21:34.529Z,1.77
2023-05-18T07:26:36.190Z,3.30
2023-05-18T07:31:40.695Z,1.20
2023-05-18T07:36:42.337Z,2.50
2023-05-18T07:41:48.547Z,2.10
2023-05-18T07:46:50.262Z,1.38
2023-05-18T07:51:51.950Z,5.03
2023-05-18T07:56:53.617Z,3.05
2023-05-18T08:01:55.275Z,3.13
2023-05-18T08:07:00.589Z,2.25
2023-05-18T08:12:02.191Z,2.63
2023-05-18T08:17:05.045Z,2.38
2023-05-18T08:22:06.765Z,1.85
2023-05-18T08:27:10.016Z,2.55
2023-05-18T08:32:12.135Z,2.90
2023-05-18T08:37:13.800Z,2.38
2023-05-18T08:42:22.008Z,3.05
2023-05-18T08:47:26.660Z,2.55
2023-05-18T08:52:35.745Z,3.00
2023-05-18T08:57:39.194Z,1.80
2023-05-18T09:02:41.962Z,1.75
2023-05-18T09:07:44.589Z,1.35
2023-05-18T09:12:47.139Z,1.30
2023-05-18T09:17:48.779Z,2.88
2023-05-18T09:22:51.553Z,1.63
2023-05-18T09:27:53.418Z,1.33
2023-05-18T09:32:55.389Z,0.95
2023-05-18T09:37:57.999Z,2.63
2023-05-18T09:43:07.340Z,3.58
2023-05-18T09:48:09.977Z,1.25
2023-05-18T09:53:13.277Z,1.27
2023-05-18T09:58:15.758Z,1.85
2023-05-18T10:03:22.311Z,0.90
2023-05-18T10:13:28.245Z,1.65
2023-05-18T10:18:31.770Z,2.38
2023-05-18T10:23:35.640Z,1.45
2023-05-18T10:28:47.376Z,2.17
2023-05-18T10:33:50.832Z,1.90
2023-05-18T10:38:53.128Z,2.13
2023-05-18T10:43:55.164Z,1.15
2023-05-18T10:48:58.980Z,1.38
2023-05-18T10:54:12.218Z,1.92
2023-05-18T10:59:15.556Z,1.27
2023-05-18T11:04:23.028Z,2.08
2023-05-18T11:09:26.208Z,1.70
2023-05-18T11:14:31.702Z,1.98
2023-05-18T11:19:33.320Z,1.20
2023-05-18T11:24:36.769Z,1.00
2023-05-18T11:29:44.919Z,1.13
2023-05-18T11:34:51.030Z,1.88
2023-05-18T11:39:59.708Z,1.50
2023-05-18T11:45:13.179Z,2.17
2023-05-18T11:50:16.701Z,2.05
2023-05-18T11:55:20.027Z,2.10
2023-05-18T12:00:24.095Z,2.08
2023-05-18T12:05:30.775Z,1.35
2023-05-18T12:15:37.564Z,1.27
2023-05-18T12:20:40.405Z,1.90
2023-05-18T12:25:42.033Z,2.03
2023-05-18T12:30:44.109Z,2.45
2023-05-18T12:35:45.893Z,2.30
2023-05-18T12:40:48.965Z,1.40
2023-05-18T12:45:51.016Z,2.05
2023-05-18T12:50:52.709Z,2.15
2023-05-18T12:55:59.581Z,2.65
2023-05-18T13:01:10.674Z,3.38
2023-05-18T13:06:12.470Z,2.67
2023-05-18T13:11:15.967Z,2.72
2023-05-18T13:16:17.659Z,2.53
2023-05-18T13:21:19.259Z,3.40
2023-05-18T13:26:22.022Z,5.95
2023-05-18T13:31:23.649Z,3.65
2023-05-18T13:36:26.138Z,3.33
2023-05-18T13:41:27.841Z,4.95
2023-05-18T13:46:29.509Z,3.80
2023-05-18T13:51:31.493Z,6.63
2023-05-18T13:56:33.091Z,7.03
2023-05-18T14:01:34.769Z,7.38
2023-05-18T14:06:36.386Z,6.50
2023-05-18T14:11:38.488Z,5.55
2023-05-18T14:16:40.203Z,6.68
2023-05-18T14:21:42.952Z,4.78
2023-05-18T14:26:44.572Z,4.38
2023-05-18T14:31:46.837Z,5.05
2023-05-18T14:36:48.423Z,3.70
2023-05-18T14:41:50.057Z,4.20
2023-05-18T14:46:52.641Z,3.72
2023-05-18T14:51:54.395Z,4.25
2023-05-18T14:56:56.021Z,5.35
2023-05-18T15:01:57.607Z,8.48
2023-05-18T15:06:59.365Z,6.13
2023-05-18T15:12:01.032Z,6.30
2023-05-18T15:17:02.605Z,5.88
2023-05-18T15:22:04.396Z,4.35
2023-05-18T15:27:06.543Z,8.93
2023-05-18T15:32:08.420Z,5.32
2023-05-18T15:37:10.157Z,6.88
2023-05-18T15:42:11.861Z,7.45
2023-05-18T15:47:13.661Z,10.43
2023-05-18T15:52:15.260Z,5.28
2023-05-18T15:57:17.289Z,7.60
2023-05-18T16:02:18.982Z,6.05
2023-05-18T16:07:20.603Z,6.55
2023-05-18T16:12:22.184Z,10.48
2023-05-18T16:17:23.858Z,8.77
2023-05-18T16:22:25.571Z,8.07
2023-05-18T16:27:27.184Z,6.43
2023-05-18T16:32:28.926Z,7.47
2023-05-18T16:37:30.965Z,8.13
2023-05-18T16:42:33.813Z,9.77
2023-05-18T16:47:35.671Z,8.60
2023-05-18T16:52:37.585Z,10.57
2023-05-18T16:57:39.904Z,6.70
2023-05-18T17:02:42.116Z,6.47
2023-05-18T17:07:44.561Z,6.95
2023-05-18T17:12:46.871Z,9.00
2023-05-18T17:17:49.297Z,7.03
2023-05-18T17:22:51.730Z,6.80
2023-05-18T17:27:54.048Z,9.50
2023-05-18T17:32:57.172Z,8.57
2023-05-18T17:37:59.556Z,8.05
2023-05-18T17:43:01.923Z,8.50
2023-05-18T17:48:04.595Z,8.95
2023-05-18T17:53:06.994Z,10.98
2023-05-18T17:58:09.438Z,8.23
2023-05-18T18:03:12.304Z,7.03
2023-05-18T18:08:17.436Z,7.80
2023-05-18T18:13:20.021Z,7.90
2023-05-18T18:18:22.823Z,8.27
2023-05-18T18:23:25.214Z,8.77
2023-05-18T18:28:27.723Z,8.05
2023-05-18T18:33:30.095Z,8.23
2023-05-18T18:38:34.481Z,9.23
2023-05-18T18:43:40.398Z,11.20
2023-05-18T18:48:42.779Z,7.53
2023-05-18T18:53:45.165Z,10.45
2023-05-18T18:58:47.497Z,8.05
2023-05-18T19:03:49.834Z,7.68
2023-05-18T19:08:53.919Z,7.63
2023-05-18T19:13:57.234Z,8.18
2023-05-18T19:18:59.612Z,7.32
2023-05-18T19:24:05.461Z,8.13
2023-05-18T19:29:08.509Z,7.63
2023-05-18T19:34:10.953Z,6.88
2023-05-18T19:39:13.460Z,6.78
2023-05-18T19:44:16.204Z,11.40
2023-05-18T19:49:18.618Z,6.85
2023-05-18T19:54:21.089Z,8.95
2023-05-18T19:59:23.429Z,9.20
2023-05-18T20:04:29.139Z,9.18
2023-05-18T20:09:31.860Z,7.00
2023-05-18T20:14:34.278Z,9.60
2023-05-18T20:19:38.399Z,7.55
2023-05-18T20:24:43.912Z,9.40
2023-05-18T20:29:47.549Z,7.88
2023-05-18T20:34:49.838Z,9.07
2023-05-18T20:39:52.462Z,12.15
2023-05-18T20:44:54.732Z,8.55
2023-05-18T20:49:59.232Z,10.73
2023-05-18T20:55:01.707Z,6.63
2023-05-18T21:00:05.015Z,6.13
2023-05-18T21:05:06.903Z,10.65
2023-05-18T21:10:09.609Z,6.43
2023-05-18T21:15:11.444Z,8.75
2023-05-18T21:20:13.061Z,9.10
2023-05-18T21:25:15.586Z,8.57
2023-05-18T21:30:18.475Z,6.72
2023-05-18T21:35:20.089Z,6.45
2023-05-18T21:40:21.747Z,6.22
2023-05-18T21:45:24.918Z,9.07
2023-05-18T21:50:27.414Z,7.13
2023-05-18T21:55:30.463Z,5.45
2023-05-18T22:00:32.373Z,8.52
2023-05-18T22:05:34.099Z,7.55
2023-05-18T22:10:35.741Z,7.05
2023-05-18T22:15:37.390Z,6.65
2023-05-18T22:20:39.031Z,8.45
2023-05-18T22:25:41.037Z,5.47
2023-05-18T22:30:42.933Z,7.93
2023-05-18T22:35:45.003Z,5.65
2023-05-18T22:40:46.578Z,6.90
2023-05-18T22:45:48.611Z,9.60
2023-05-18T22:50:50.183Z,7.57
2023-05-18T22:55:51.900Z,5.88
2023-05-18T23:00:53.501Z,5.55
2023-05-18T23:05:55.079Z,6.70
2023-05-18T23:10:58.428Z,11.35
2023-05-18T23:16:00.981Z,7.13
2023-05-18T23:21:02.861Z,7.65
2023-05-18T23:26:04.690Z,5.00
2023-05-18T23:31:06.391Z,7.35
2023-05-18T23:36:08.781Z,8.07
2023-05-18T23:41:11.177Z,7.00
2023-05-18T23:46:13.304Z,6.78
2023-05-18T23:51:17.533Z,8.05
2023-05-18T23:56:19.413Z,6.15
